Station: Canberra  

  Atmospheric Gas Attenuation - ITU Rec 676-11   ----------------- dB/100km -----------------
Date Time Temp RH % AH g/m3 Dew Point Wind Direction Speed kph Gust kph Barometer mB Rainfall Since 9am 24GHz 47GHz 76GHz 122GHz 134GHz 241GHz
02/09 19:40 15 71 9.1 9.8 17 22 1014.8 0 20.6 26.4 41.3 108.4 103.6 356.8
02/09 19:30 15.6 70 9.31 10.2 17 19 1015.1 0 21.0 26.6 41.8 109.8 105.6 363.8
02/09 19:20 15.1 69 8.9 9.5 15 19 1015 0 20.2 26.1 40.4 106.1 100.8 347.1
02/09 19:10 15.9 67 9.07 9.8 15 17 1015 0 20.5 26.1 40.7 106.8 102.0 351.4
02/09 19:00 16.3 65 9.02 9.7 15 19 1015.1 0 20.4 25.9 40.3 105.8 100.8 347.4
02/09 18:50 16 65 8.86 9.4 17 22 1015.2 0 20.0 25.7 39.8 104.5 99.2 341.4
02/09 18:40 16.4 64 8.93 9.6 19 24 1015.2 0 20.2 25.7 39.9 104.7 99.6 342.9
02/09 18:30 16 65 8.86 9.4 20 33 1015.1 0 20.0 25.7 39.8 104.5 99.2 341.4
02/09 18:20 15.7 65 8.7 9.1 20 32 1014.9 0 19.7 25.6 39.3 103.2 97.5 335.4
02/09 18:10 16.4 61 8.51 8.9 24 30 1014.8 0 19.3 25.1 38.2 100.3 94.1 323.9
02/09 18:00 16.3 62 8.6 9 24 33 1014.6 0 19.5 25.2 38.6 101.3 95.4 328.3
02/09 17:50 16 63 8.58 9 20 28 1014.6 0 19.4 25.3 38.7 101.5 95.5 328.7
02/09 17:40 16.2 61 8.41 8.7 24 33 1014.7 0 19.1 25.0 37.9 99.5 93.1 320.3
02/09 17:30 16.9 58 8.34 8.6 24 33 1014.7 0 18.9 24.7 37.3 97.9 91.4 314.4
02/09 17:20 17.2 58 8.49 8.9 24 33 1014.8 0 19.2 24.8 37.8 99.1 92.9 319.8
02/09 17:10 17.5 56 8.35 8.6 24 39 1014.7 0 18.9 24.5 37.1 97.3 90.8 312.5
02/09 17:00 17.5 55 8.2 8.4 22 30 1014.6 0 18.6 24.3 36.5 95.8 89.0 305.9
02/09 16:50 17.8 54 8.2 8.4 20 32 1014.6 0 18.6 24.2 36.4 95.4 88.6 304.8
02/09 16:40 17.8 54 8.2 8.4 20 33 1014.4 0 18.6 24.2 36.4 95.4 88.6 304.7
02/09 16:30 17.9 53 8.09 8.2 22 37 1014.3 0 18.3 24.0 35.9 94.2 87.1 299.6
02/09 16:20 19.3 51 8.46 8.9 24 33 1014.4 0 19.0 24.2 36.7 96.2 90.1 310.1
02/09 16:10 19.4 47 7.84 7.8 26 32 1014.4 0 17.7 23.2 34.4 90.0 82.5 283.6
02/09 16:00 19.6 46 7.76 7.7 28 37 1014.3 0 17.5 23.1 34.0 89.0 81.4 279.5
02/09 15:50 19.8 47 8.03 8.2 28 39 1014.4 0 18.1 23.4 34.9 91.4 84.4 290.1
02/09 15:40 20.1 46 8 8.1 28 39 1014.6 0 18.0 23.3 34.7 90.8 83.7 287.8
02/09 15:30 19.6 45 7.6 7.4 30 41 1014.7 0 17.2 22.9 33.4 87.5 79.5 273.0
02/09 15:20 20.2 45 7.87 7.9 24 33 1014.8 0 17.7 23.1 34.2 89.5 82.1 282.1
02/09 15:10 19.6 47 7.93 8 28 35 1014.9 0 17.9 23.3 34.6 90.7 83.4 286.7
02/09 15:00 20.3 45 7.91 8 28 35 1014.9 0 17.8 23.1 34.3 89.7 82.5 283.4
02/09 14:50 20 45 7.78 7.7 32 43 1014.8 0 17.6 23.0 33.9 88.8 81.2 279.1
02/09 14:40 20.2 46 8.04 8.2 28 39 1014.8 0 18.1 23.3 34.8 91.1 84.1 289.2
02/09 14:30 19.6 48 8.1 8.3 26 35 1014.7 0 18.3 23.6 35.2 92.3 85.4 293.8
02/09 14:20 20.3 47 8.27 8.6 28 41 1014.6 0 18.6 23.7 35.6 93.2 86.7 298.4
02/09 14:10 20.5 44 7.83 7.8 30 33 1014.6 0 17.7 23.0 33.9 88.7 81.3 279.4
02/09 14:00 20.2 45 7.87 7.9 30 43 1014.6 0 17.7 23.1 34.2 89.4 82.1 282.1
02/09 13:50 21.6 46 8.72 9.5 28 33 1014.7 0 19.5 24.0 36.6 96.0 90.6 312.3
02/09 13:40 21 43 7.88 8 35 52 1014.7 0 17.7 22.9 33.9 88.7 81.4 279.7
02/09 13:30 21.3 43 8.01 8.2 32 43 1014.6 0 18.0 23.0 34.2 89.6 82.6 284.0
02/09 13:20 20.2 44 7.69 7.6 33 46 1014.8 0 17.4 22.8 33.5 87.7 80.0 274.7
02/09 13:10 21.3 45 8.39 8.9 32 37 1015 0 18.8 23.6 35.6 93.2 87.1 299.8
02/09 13:00 20.5 47 8.36 8.8 32 44 1015.2 0 18.8 23.8 35.8 93.9 87.6 301.5
02/09 12:50 20.8 51 9.23 10.3 22 37 1015.4 0 20.6 25.0 38.9 102.1 97.8 337.4
02/09 12:40 19.9 54 9.28 10.3 30 37 1015.6 0 20.7 25.3 39.5 103.8 99.6 343.4
02/09 12:30 20 54 9.33 10.4 26 35 1015.6 0 20.8 25.4 39.7 104.1 100.1 345.2
02/09 12:20 19.4 57 9.51 10.7 30 35 1015.9 0 21.2 25.8 40.7 106.8 103.2 355.8
02/09 12:10 18 57 8.75 9.4 28 37 1016.1 0 19.7 25.0 38.5 100.9 95.4 328.3
02/09 12:00 17.6 57 8.55 9 28 33 1016.3 0 19.3 24.9 37.9 99.4 93.3 321.2
02/09 11:50 18.9 57 9.23 10.2 26 33 1016.5 0 20.7 25.5 39.9 104.7 100.3 345.8
02/09 11:40 18.9 55 8.91 9.7 22 33 1016.7 0 20.0 25.1 38.7 101.4 96.3 331.8
02/09 11:30 18.8 56 9.02 9.8 24 33 1016.8 0 20.2 25.3 39.1 102.7 97.8 337.1
02/09 11:20 18.6 55 8.75 9.4 20 30 1017 0 19.7 24.9 38.2 100.2 94.7 326.1
02/09 11:10 19.3 54 8.96 9.8 22 30 1017 0 20.1 25.0 38.7 101.4 96.5 332.4
02/09 11:00 18.1 56 8.65 9.2 20 32 1017 0 19.5 24.9 38.1 99.8 94.1 323.8
02/09 10:50 17.9 57 8.7 9.3 20 28 1017.1 0 19.6 25.0 38.4 100.6 94.9 326.8
02/09 10:40 18 59 9.06 9.9 19 30 1017.3 0 20.4 25.6 39.7 104.2 99.4 342.4
02/09 10:30 17.8 59 8.95 9.7 20 28 1017.3 0 20.1 25.5 39.4 103.3 98.2 338.3
02/09 10:20 17.2 59 8.64 9.1 20 30 1017.5 0 19.5 25.1 38.5 100.9 95.0 327.1
02/09 10:10 16.8 60 8.58 9 19 24 1017.6 0 19.4 25.2 38.4 100.8 94.8 326.2
02/09 10:00 17.2 63 9.23 10.1 22 28 1017.6 0 20.8 26.1 40.8 107.0 102.6 353.6
02/09 09:50 16.2 61 8.41 8.7 20 28 1017.6 0 19.1 25.1 38.1 99.8 93.3 321.0
02/09 09:40 16.7 63 8.95 9.6 20 28 1017.7 0 20.2 25.8 39.9 104.8 99.6 343.2
02/09 09:30 16.2 61 8.41 8.7 20 28 1017.6 0 19.1 25.1 38.1 99.8 93.3 321.0
02/09 09:20 15.8 63 8.48 8.8 24 30 1017.5 0 19.2 25.3 38.5 101.0 94.7 325.8
02/09 09:10 16.1 63 8.64 9.1 22 30 1017.5 0 19.6 25.5 39.0 102.3 96.4 331.7
02/09 09:00 15.9 63 8.53 8.9 22 30 1017.3 0 19.3 25.3 38.7 101.4 95.2 327.5
02/09 08:50 15.5 64 8.46 8.7 20 28 1017.5 0 19.2 25.3 38.6 101.2 94.8 326.1
02/09 08:40 15.3 64 8.36 8.5 19 26 1017.6 0 19.0 25.2 38.3 100.4 93.8 322.4
02/09 08:30 15.2 64 8.31 8.4 24 32 1017.7 0 18.9 25.2 38.2 100.0 93.3 320.6
02/09 08:20 15 64 8.21 8.3 24 33 1017.7 0 18.7 25.1 37.9 99.2 92.2 316.9
02/09 08:10 14.7 65 8.18 8.2 24 32 1017.5 0 18.6 25.1 37.9 99.3 92.2 316.7
02/09 08:00 14.4 67 8.28 8.4 26 33 1017.2 0 18.9 25.4 38.4 100.7 93.8 322.4
02/09 07:50 14.3 68 8.35 8.5 20 30 1017.2 0 19.0 25.5 38.7 101.5 94.8 326.0
02/09 07:40 13.7 71 8.41 8.5 20 30 1017.2 0 19.2 25.8 39.3 103.0 96.3 331.2
02/09 07:30 13.4 72 8.37 8.5 19 22 1017 0 19.1 25.8 39.2 102.9 96.2 330.6
02/09 07:20 12.9 75 8.45 8.6 15 22 1017.1 0 19.3 26.1 39.8 104.4 97.9 336.5
02/09 07:10 12.7 76 8.46 8.6 20 26 1017 0 19.3 26.1 40.0 104.8 98.2 337.8
02/09 07:00 12.2 78 8.42 8.5 24 28 1016.7 0 19.3 26.2 40.0 105.0 98.3 337.9
02/09 06:50 11.5 81 8.37 8.4 22 30 1016.9 0 19.2 26.3 40.2 105.4 98.5 338.7
02/09 06:40 10.9 83 8.26 8.1 17 20 1016.7 0 19.0 26.3 40.0 105.0 97.8 336.0
02/09 06:30 11.5 81 8.37 8.4 17 24 1016.7 0 19.2 26.3 40.2 105.4 98.5 338.6
02/09 06:20 11.5 81 8.37 8.4 19 22 1016.6 0 19.2 26.3 40.2 105.4 98.5 338.6
02/09 06:10 11.6 80 8.32 8.3 15 19 1016.6 0 19.1 26.2 39.9 104.7 97.7 335.8
02/09 06:00 11.5 80 8.26 8.2 17 20 1016.4 0 19.0 26.1 39.7 104.2 97.0 333.3
02/09 05:50 11.8 79 8.32 8.3 19 26 1016.2 0 19.1 26.1 39.8 104.4 97.4 334.8
02/09 05:40 11.8 79 8.32 8.3 22 28 1016 0 19.1 26.1 39.8 104.4 97.4 334.8
02/09 05:30 12.1 77 8.26 8.2 20 32 1016.2 0 18.9 25.9 39.4 103.3 96.3 330.7
02/09 05:20 12.3 76 8.25 8.2 19 24 1016.3 0 18.9 25.9 39.3 103.0 95.9 329.4
02/09 05:10 12.5 75 8.25 8.2 24 33 1016.2 0 18.9 25.8 39.2 102.7 95.6 328.6
02/09 05:00 12.5 75 8.25 8.2 24 28 1016.1 0 18.9 25.8 39.2 102.7 95.6 328.5
02/09 04:50 12.2 76 8.2 8.1 17 22 1016.2 0 18.8 25.8 39.1 102.6 95.3 327.5
02/09 04:40 12.5 76 8.36 8.4 19 20 1015.9 0 19.1 26.0 39.6 103.9 97.1 333.6
02/09 04:30 12.8 75 8.4 8.5 20 28 1016.4 0 19.2 26.0 39.6 104.0 97.3 334.4
02/09 04:20 12.4 78 8.52 8.7 19 28 1016.4 0 19.5 26.3 40.3 105.8 99.4 341.7
02/09 04:10 12.4 78 8.52 8.7 17 22 1016.5 0 19.5 26.3 40.3 105.8 99.4 341.7
02/09 04:00 12.5 77 8.47 8.6 19 22 1016.5 0 19.4 26.2 40.1 105.1 98.6 338.9
02/09 03:50 12.4 77 8.41 8.5 19 24 1016.5 0 19.2 26.1 39.9 104.6 97.9 336.6
02/09 03:40 12.3 76 8.25 8.2 19 26 1016.5 0 18.9 25.9 39.3 103.0 95.9 329.5
02/09 03:30 12.8 73 8.18 8.1 20 28 1016.3 0 18.7 25.6 38.7 101.6 94.3 324.1
02/09 03:20 13.4 69 8.02 7.8 22 30 1016.1 0 18.4 25.2 37.8 99.1 91.5 314.3
02/09 03:10 13.4 70 8.14 8 22 32 1016.9 0 18.6 25.4 38.3 100.4 93.1 320.0

Last Refresh: 02-Sep-2026 19:13:49

Bureau of Meteorology